Latest Coastal Weather Observations for Learmonth

IDW60701

Issued at 7:15 pm WST Friday 25 July 2014 (issued every 10 minutes, with the page automatically refreshed every 10 minutes)

About coastal observations | Map of coastal stations | Coastal observations for WA | Marine services | Other Formats
Station Details ID: 005007 Name: LEARMONTH AIRPORT Lat: -22.24 Lon: 114.10 Height: 5.0 m
Data from the previous 72 hours. | See also: Recent months at Learmonth
Date/Time
WST
Temp

°C
Wind Pressure Rain
since 9am
mm
Weather Cloud Vis
km
Sea
Height
m
Swell
Dir
 
Speed
knots
Gust
knots
hPa Trend Height
m
Period
s
Dir
25/07:00pm 15.8 N 6 7 1019.9 - 0.0 - - 10 - - - -
25/06:30pm 16.8 N 7 8 1019.7 - 0.0 - - 10 - - - -
25/06:00pm 18.3 N 8 9 1019.3 - 0.0 - - 10 - - - -
25/05:30pm 20.0 N 11 13 1019.1 - 0.0 - - 10 - - - -
25/05:00pm 20.8 N 12 15 1019.2 - 0.0 - - 10 - - - -
25/04:30pm 21.0 N 13 15 1019.3 - 0.0 - - 10 - - - -
25/04:00pm 21.5 N 13 17 1019.3 - 0.0 - - 10 - - - -
25/03:30pm 21.4 N 14 17 1019.4 - 0.0 - - 10 - - - -
25/03:00pm 21.4 N 15 17 1019.3 - 0.0 - - 10 - - - -
25/02:30pm 21.8 NNE 16 19 1019.6 - 0.0 - - 10 - - - -
25/02:00pm 21.5 NNE 15 19 1019.6 - 0.0 - - 10 - - - -
25/01:30pm 22.0 NNE 14 17 1020.0 - 0.0 - - 10 - - - -
25/01:00pm 21.3 NNE 13 16 1020.5 - 0.0 - - 10 - - - -
25/12:30pm 21.4 NNE 13 18 1021.0 - 0.0 - - 10 - - - -
25/12:00pm 19.7 NNE 10 14 1021.2 - 0.0 - - 10 - - - -
25/11:30am 19.0 NNE 8 11 1021.6 - 0.0 - - 10 - - - -
25/11:00am 17.8 NNE 7 9 1022.0 - 0.0 - - 10 - - - -
25/10:30am 17.6 NE 8 11 1022.1 - 0.0 - - 10 - - - -
25/10:00am 17.2 NE 6 8 1022.1 - 0.0 - - 10 - - - -
25/09:30am 16.5 ENE 6 8 1022.1 - 0.0 - - 10 - - - -
25/09:00am 15.6 ESE 4 5 1021.7 - 0.0 - - 10 - - - -
25/08:30am 13.1 S 4 5 1021.5 - 0.0 - - 10 - - - -
25/08:00am 9.3 SW 4 5 1021.4 - 0.0 - - 10 - - - -
25/07:30am 5.7 SW 5 6 1021.0 - 0.0 - - 10 - - - -
25/07:00am 4.9 SSW 5 6 1020.5 - 0.0 - - 10 - - - -
25/06:30am 5.4 SSW 6 7 1020.1 - 0.0 - - 10 - - - -
25/06:00am 5.8 SSW 5 6 1019.7 - 0.0 - - 10 - - - -
25/05:30am 6.9 SSW 6 8 1019.4 - 0.0 - - 10 - - - -
25/05:00am 7.0 SW 9 10 1019.2 - 0.0 - - 10 - - - -
25/04:30am 7.0 SW 7 8 1019.0 - 0.0 - - 10 - - - -
25/04:00am 7.2 SW 6 7 1019.0 - 0.0 - - 10 - - - -
25/03:30am 8.0 SW 7 9 1018.9 - 0.0 - - 10 - - - -
25/03:00am 9.1 SW 6 7 1018.9 - 0.0 - - 10 - - - -
25/02:30am 9.3 WSW 9 10 1019.0 - 0.0 - - 10 - - - -
25/02:00am 8.9 WSW 9 10 1018.9 - 0.0 - - 10 - - - -
25/01:30am 6.8 SW 6 7 1019.0 - 0.0 - - 10 - - - -
25/01:00am 6.1 SW 4 6 1019.3 - 0.0 - - 10 - - - -
25/12:30am 7.5 SW 5 7 1019.3 - 0.0 - - 10 - - - -
25/12:00am 7.7 SW 3 5 1018.9 - 0.0 - - 10 - - - -
 
Date/Time
WST
Temp

°C
Wind Pressure Rain
since 9am
mm
Weather Cloud Vis
km
Sea
Height
m
Swell
Dir
 
Speed
knots
Gust
knots
hPa Trend Height
m
Period
s
Dir
24/11:30pm 7.5 SSW 5 6 1019.5 - 0.0 - - 10 - - - -
24/11:00pm 8.0 WSW 5 6 1019.8 - 0.0 - - 10 - - - -
24/10:30pm 7.9 SSW 6 7 1019.9 - 0.0 - - 10 - - - -
24/10:00pm 9.5 WSW 5 5 1019.9 - 0.0 - - 10 - - - -
24/09:30pm 10.2 WSW 5 5 1020.0 - 0.0 - - 10 - - - -
24/09:00pm 11.0 WSW 5 6 1019.9 - 0.0 - - 10 - - - -
24/08:30pm 11.5 WSW 6 7 1019.9 - 0.0 - - 10 - - - -
24/08:00pm 12.3 WSW 5 6 1019.5 - 0.0 - - 10 - - - -
24/07:30pm 13.8 W 5 7 1019.3 - 0.0 - - 10 - - - -
24/07:00pm 16.3 WNW 4 5 1019.0 - 0.0 - - 10 - - - -
24/06:30pm 18.1 W 5 5 1019.0 - 0.0 - - 10 - - - -
24/06:00pm 20.0 CALM 0 0 1018.7 - 0.0 - - 10 - - - -
24/05:30pm 21.0 CALM 0 0 1019.0 - 0.0 - - 10 - - - -
24/05:00pm 21.5 SE 3 6 1019.1 - 0.0 - - 10 - - - -
24/04:30pm 21.5 E 5 7 1019.0 - 0.0 - - 10 - - - -
24/04:00pm 21.6 E 7 10 1018.9 - 0.0 - - 10 - - - -
24/03:30pm 21.2 ESE 7 9 1018.7 - 0.0 - - 10 - - - -
24/03:00pm 21.2 E 6 9 1018.8 S 0.0 Fine Clear 30 - - - -
24/02:30pm 21.1 E 7 11 1019.3 - 0.0 - - 10 - - - -
24/02:00pm 20.6 ESE 8 11 1019.6 - 0.0 - - 10 - - - -
24/01:30pm 21.0 ESE 10 13 1019.8 - 0.0 - - 10 - - - -
24/01:00pm 20.2 ESE 11 13 1020.4 - 0.0 - - 10 - - - -
24/12:30pm 19.8 ESE 13 18 1020.8 - 0.0 - - 10 - - - -
24/12:00pm 19.3 ESE 14 17 1021.0 F 0.0 Fine Clear 30 - - - -
24/11:30am 19.1 ESE 15 20 1021.7 - 0.0 - - 10 - - - -
24/11:00am 18.1 E 13 16 1021.9 - 0.0 - - 10 - - - -
24/10:30am 17.9 SE 13 18 1022.2 - 0.0 - - 10 - - - -
24/10:00am 16.6 SE 15 19 1022.6 - 0.0 - - 10 - - - -
24/09:30am 16.5 SE 16 21 1022.7 - 0.0 - - 10 - - - -
24/09:00am 16.0 SE 15 19 1022.1 S 0.0 Fine Clear 30 - - - -
24/08:30am 13.4 S 7 9 1022.2 - 0.0 - - 10 - - - -
24/08:00am 10.3 SSW 6 7 1021.9 - 0.0 - - 10 - - - -
24/07:30am 6.9 SSW 7 8 1021.5 - 0.0 - - 10 - - - -
24/07:00am 7.0 SSW 7 7 1021.2 - 0.0 - - 10 - - - -
24/06:30am 7.1 SSW 7 8 1020.9 - 0.0 - - 10 - - - -
24/06:00am 7.7 SSW 9 10 1020.6 S 0.0 Fine Clear 30 - - - -
24/05:30am 8.1 SSW 7 9 1020.6 - 0.0 - - 10 - - - -
24/05:00am 8.4 SW 7 9 1020.5 - 0.0 - - 10 - - - -
24/04:30am 8.3 SSW 8 9 1020.3 - 0.0 - - 10 - - - -
24/04:00am 9.0 SW 8 9 1020.2 - 0.0 - - 10 - - - -
24/03:30am 9.6 SW 8 10 1020.4 - 0.0 - - 10 - - - -
24/03:00am 10.1 SW 8 10 1020.5 - 0.0 - - 10 - - - -
24/02:30am 10.4 S 8 9 1020.5 - 0.0 - - 10 - - - -
24/02:00am 10.0 SSW 9 10 1020.8 - 0.0 - - 10 - - - -
24/01:30am 10.8 SSW 9 11 1020.7 - 0.0 - - 10 - - - -
24/01:00am 10.5 SSW 9 10 1020.9 - 0.0 - - 10 - - - -
24/12:30am 11.1 SSW 10 12 1020.8 - 0.0 - - 10 - - - -
24/12:00am 10.9 SSW 10 12 1020.7 - 0.0 - - 10 - - - -
 
Date/Time
WST
Temp

°C
Wind Pressure Rain
since 9am
mm
Weather Cloud Vis
km
Sea
Height
m
Swell
Dir
 
Speed
knots
Gust
knots
hPa Trend Height
m
Period
s
Dir
23/11:30pm 9.8 SSW 8 9 1020.8 - 0.0 - - 10 - - - -
23/11:00pm 10.2 SSW 8 9 1021.0 - 0.0 - - 10 - - - -
23/10:30pm 10.8 SSW 9 9 1020.8 - 0.0 - - 10 - - - -
23/10:00pm 11.2 SSW 9 9 1020.8 - 0.0 - - 10 - - - -
23/09:30pm 12.3 SSW 10 11 1020.6 - 0.0 - - 10 - - - -
23/09:00pm 12.6 SSW 9 10 1020.2 - 0.0 - - 10 - - - -
23/08:30pm 13.3 SSW 9 11 1020.0 - 0.0 - - 10 - - - -
23/08:00pm 13.2 SSW 9 10 1019.7 - 0.0 - - 10 - - - -
23/07:30pm 13.2 SSW 10 11 1019.4 - 0.0 - - 10 - - - -
23/07:00pm 14.1 S 8 9 1019.1 - 0.0 - - 10 - - - -
23/06:30pm 16.1 S 8 9 1018.9 - 0.0 - - 10 - - - -
23/06:00pm 18.6 S 9 11 1018.6 - 0.0 - - 10 - - - -
23/05:30pm 20.8 S 11 14 1018.7 - 0.0 - - 10 - - - -
23/05:00pm 21.7 S 11 14 1018.6 - 0.0 - - 10 - - - -
23/04:30pm 22.0 SSE 15 19 1018.5 - 0.0 - - 10 - - - -
23/04:00pm 22.4 SSE 13 17 1018.5 - 0.0 - - 10 - - - -
23/03:30pm 22.1 S 14 17 1018.4 - 0.0 - - 10 - - - -
23/03:00pm 22.2 S 10 14 1018.6 F 0.0 Fine Clear 30 - - - -
23/02:30pm 22.2 SE 11 17 1018.9 - 0.0 - - 10 - - - -
23/02:00pm 22.0 SE 10 17 1019.2 - 0.0 - - 10 - - - -
23/01:30pm 21.8 SE 11 16 1019.6 - 0.0 - - 10 - - - -
23/01:00pm 21.2 SE 12 17 1020.1 - 0.0 - - 10 - - - -
23/12:30pm 21.0 ESE 12 17 1020.7 - 0.0 - - 10 - - - -
23/12:00pm 20.6 SE 11 15 1021.2 F 0.0 Haze Clear 27 - - - -
23/11:30am 20.0 SE 12 16 1021.9 - 0.0 - - 10 - - - -
23/11:00am 19.7 SE 15 18 1022.3 - 0.0 - - 10 - - - -
23/10:30am 18.5 SE 16 20 1022.7 - 0.0 - - 10 - - - -
23/10:00am 18.4 SSE 14 19 1022.9 - 0.0 - - 10 - - - -
23/09:30am 17.2 SSE 16 20 1022.8 - 0.0 - - 10 - - - -
23/09:00am 16.1 SSE 15 19 1022.4 F 0.0 Haze Clear 27 - - - -
23/08:30am 14.6 S 12 15 1022.5 - 0.0 - - 10 - - - -
23/08:00am 12.4 SSW 8 9 1022.4 - 0.0 - - 10 - - - -
23/07:30am 10.1 SSW 7 9 1021.9 - 0.0 - - 10 - - - -
23/07:00am 9.6 S 8 9 1021.6 - 0.0 - - 10 - - - -
23/06:30am 9.9 S 8 9 1021.4 - 0.0 - - 10 - - - -
23/06:00am 10.3 S 8 10 1021.1 R 0.0 Fine Clear 30 - - - -
23/05:30am 10.8 S 8 11 1021.0 - 0.0 - - 10 - - - -
23/05:00am 11.5 S 10 14 1021.0 - 0.0 - - 10 - - - -
23/04:30am 11.9 S 10 15 1021.1 - 0.0 - - 10 - - - -
23/04:00am 12.1 S 11 15 1021.0 - 0.0 - - 10 - - - -
23/03:30am 12.5 S 10 13 1021.1 - 0.0 - - 10 - - - -
23/03:00am 10.9 SSW 8 10 1020.7 - 0.0 - - 10 - - - -
23/02:30am 11.6 SSW 9 10 1020.6 - 0.0 - - 10 - - - -
23/02:00am 11.7 SSW 9 11 1020.7 - 0.0 - - 10 - - - -
23/01:30am 11.7 SSW 9 11 1020.8 - 0.0 - - 10 - - - -
23/01:00am 12.1 SSW 10 11 1021.0 - 0.0 - - 10 - - - -
23/12:30am 12.6 SSW 10 12 1020.8 - 0.0 - - 10 - - - -
23/12:00am 13.0 SSW 11 14 1020.5 - 0.0 - - 10 - - - -
 
Date/Time
WST
Temp

°C
Wind Pressure Rain
since 9am
mm
Weather Cloud Vis
km
Sea
Height
m
Swell
Dir
 
Speed
knots
Gust
knots
hPa Trend Height
m
Period
s
Dir
22/11:30pm 13.4 SSW 11 13 1020.6 - 0.0 - - 10 - - - -
22/11:00pm 13.6 SSW 11 14 1020.6 - 0.0 - - 10 - - - -
22/10:30pm 13.8 SSW 11 13 1020.4 - 0.0 - - 10 - - - -
22/10:00pm 14.1 SSW 11 13 1020.3 - 0.0 - - 10 - - - -
22/09:30pm 14.4 SSW 11 13 1020.2 - 0.0 - - 10 - - - -
22/09:00pm 14.1 SW 9 11 1019.8 - 0.0 - - 10 - - - -
22/08:30pm 13.6 SSW 9 10 1019.6 - 0.0 - - 10 - - - -
22/08:00pm 13.9 SSW 7 9 1019.4 - 0.0 - - 10 - - - -
22/07:30pm 14.5 S 9 10 1019.0 - 0.0 - - 10 - - - -

Other Formats:

Comma delimited format used in spreadsheet applications
http://www.bom.gov.au/fwo/IDW60701/IDW60701.94302.axf

JavaScript Object Notation format (JSON) in row-major order
http://www.bom.gov.au/fwo/IDW60701/IDW60701.94302.json